PST,Max TemperatureF,Mean TemperatureF,Min TemperatureF,Max Dew PointF,MeanDew PointF,Min DewpointF,Max Humidity, Mean Humidity, Min Humidity, Max Sea Level PressureIn, Mean Sea Level PressureIn, Min Sea Level PressureIn, Max VisibilityMiles, Mean VisibilityMiles, Min VisibilityMiles, Max Wind SpeedMPH, Mean Wind SpeedMPH, Max Gust SpeedMPH,PrecipitationIn, CloudCover, Events, WindDirDegrees
2011-12-1,39,34,30,37,34,28,100,93,87,30.81,30.67,30.46,10,8,0,8,3,,0.00,7,,11
2011-12-2,41,34,28,37,33,27,100,93,87,30.54,30.51,30.45,10,7,0,6,1,,0.00,6,,228
2011-12-3,41,34,26,36,32,25,100,92,81,30.54,30.52,30.49,10,9,0,6,1,,0.00,8,,216
2011-12-4,44,37,30,37,34,28,100,85,66,30.61,30.57,30.52,10,9,5,15,4,22,0.00,5,,25
2011-12-5,39,36,33,34,33,30,100,87,81,30.60,30.51,30.45,10,10,10,8,2,,0.00,8,,8
2011-12-6,37,32,28,34,32,27,100,93,87,30.49,30.47,30.44,10,7,0,6,1,,0.00,8,,246
2011-12-7,41,36,32,39,35,30,100,93,87,30.50,30.47,30.44,10,6,0,10,2,,0.00,7,,10
2011-12-8,39,37,35,36,33,30,93,86,75,30.48,30.44,30.38,10,10,10,12,5,16,0.00,8,,22
2011-12-9,42,35,28,36,32,27,100,86,70,30.39,30.30,30.18,10,10,1,10,6,17,0.00,4,,29
2011-12-10,37,34,30,36,33,28,100,94,87,30.19,30.16,30.13,10,4,0,6,2,,0.00,7,,187
2011-12-11,39,34,28,36,32,25,100,87,70,30.20,30.15,30.11,10,8,0,10,4,,0.00,6,,24
2011-12-12,39,34,28,30,26,21,93,70,52,30.29,30.22,30.14,10,10,10,16,9,23,0.00,0,,23
2011-12-13,41,31,21,30,26,19,100,82,57,30.10,30.07,30.03,10,10,10,6,2,,0.00,3,,24
2011-12-14,39,34,30,34,31,28,100,85,70,30.19,30.13,30.09,10,10,7,13,2,,0.00,7,,189
2011-12-15,42,38,35,41,38,34,100,94,87,30.49,30.33,30.12,10,3,0,7,1,,0.00,8,,174
2011-12-16,46,40,33,43,40,32,100,90,81,30.50,30.46,30.43,10,9,3,13,6,,0.00,8,,184
2011-12-17,48,38,28,43,33,27,100,89,71,30.42,30.21,30.03,10,6,0,17,2,23,0.00,4,,209
2011-12-18,48,40,32,43,38,30,100,88,71,30.45,30.27,30.09,10,8,0,9,2,16,0.01,7,,40
2011-12-19,46,40,35,41,38,36,100,90,76,30.49,30.46,30.41,10,8,0,7,1,,0.00,8,,191
2011-12-20,44,42,39,39,38,36,93,91,81,30.41,30.33,30.30,10,8,0,10,3,,0.00,8,,175
2011-12-21,42,35,26,37,31,25,100,88,70,30.55,30.49,30.37,10,8,0,10,2,,0.00,4,,27
2011-12-22,32,19,6,30,28,16,100,96,86,30.54,30.41,30.33,10,2,0,9,2,,0.00,6,,206
2011-12-23,44,38,32,39,36,28,100,88,81,30.57,30.51,30.38,10,9,3,12,7,,0.00,8,,197
2011-12-24,51,42,33,43,38,30,100,80,54,30.51,30.42,30.27,10,10,9,14,9,18,0.01,3,,197
2011-12-25,44,40,35,41,36,34,93,84,66,30.37,30.14,29.97,10,10,5,28,7,38,0.06,2,,194
2011-12-26,39,36,33,37,35,30,93,90,81,30.37,30.29,30.20,10,10,8,10,5,18,0.06,6,,186
2011-12-27,46,42,39,45,41,37,100,92,87,30.16,30.02,29.73,10,7,3,18,12,29,1.90,8,,182
2011-12-28,51,50,46,48,48,45,100,92,87,29.89,29.78,29.60,10,9,5,28,17,34,0.89,7,,188
2011-12-29,46,42,37,43,40,36,93,89,81,30.11,29.90,29.57,10,8,3,20,10,24,0.47,4,,200
2011-12-30,46,39,32,45,36,28,93,79,57,30.17,29.81,29.59,10,10,8,20,13,26,0.07,1,,205
2011-12-31,39,32,24,34,29,21,100,87,75,30.43,30.35,30.25,10,10,5,7,1,,0.00,2,,21